HVN252 VVTS-VVNB
Flight info
| Callsign | HVN252 |
|---|---|
| Flight time | N/A |
| Altitude | 35000 |
| Route | PATMA5P PATMA Q2 BIVIM BISON3J |
| Aircraft | A321/M-SDE3FGHIRWY/LB1 |
Departure
| Time | 2026-05-07 13:16 |
|---|---|
| Airport | Tan Son Nhat International Airport (VVTS) |
Arrival
| Time | N/A |
|---|---|
| Airport | Noi Bai International Airport (VVNB) |
| Time | Latitude | Longitude | Altitude | Speed | Heading |
|---|---|---|---|---|---|
| 2026-05-07 12:46 | 10.81267 | 106.65352 | 40 ft | 0 kts | 159° |
| 2026-05-07 13:03 | 10.81281 | 106.65347 | 38 ft | 3 kts | 160° |
| 2026-05-07 13:04 | 10.81301 | 106.65339 | 38 ft | 3 kts | 159° |
| 2026-05-07 13:04 | 10.81319 | 106.65332 | 38 ft | 2 kts | 150° |
| 2026-05-07 13:04 | 10.81328 | 106.65326 | 39 ft | 1 kts | 114° |
| 2026-05-07 13:04 | 10.81330 | 106.65318 | 40 ft | 1 kts | 73° |
| 2026-05-07 13:05 | 10.81328 | 106.65310 | 40 ft | 1 kts | 70° |
| 2026-05-07 13:05 | 10.81327 | 106.65307 | 39 ft | 0 kts | 69° |
| 2026-05-07 13:09 | 10.81330 | 106.65315 | 39 ft | 3 kts | 69° |
| 2026-05-07 13:09 | 10.81339 | 106.65340 | 38 ft | 4 kts | 69° |
| 2026-05-07 13:10 | 10.81350 | 106.65370 | 38 ft | 5 kts | 69° |
| 2026-05-07 13:10 | 10.81364 | 106.65406 | 38 ft | 6 kts | 69° |
| 2026-05-07 13:10 | 10.81379 | 106.65446 | 39 ft | 7 kts | 69° |
| 2026-05-07 13:10 | 10.81396 | 106.65492 | 38 ft | 7 kts | 68° |
| 2026-05-07 13:11 | 10.81419 | 106.65550 | 37 ft | 11 kts | 69° |
| 2026-05-07 13:11 | 10.81452 | 106.65639 | 39 ft | 16 kts | 69° |
| 2026-05-07 13:11 | 10.81492 | 106.65743 | 38 ft | 16 kts | 69° |
| 2026-05-07 13:11 | 10.81570 | 106.65790 | 39 ft | 13 kts | 12° |
| 2026-05-07 13:12 | 10.81664 | 106.65801 | 39 ft | 14 kts | 359° |
| 2026-05-07 13:12 | 10.81755 | 106.65810 | 39 ft | 13 kts | 43° |
| 2026-05-07 13:12 | 10.81796 | 106.65895 | 38 ft | 14 kts | 69° |
| 2026-05-07 13:12 | 10.81833 | 106.65995 | 39 ft | 16 kts | 69° |
| 2026-05-07 13:13 | 10.81878 | 106.66113 | 39 ft | 19 kts | 69° |
| 2026-05-07 13:13 | 10.81926 | 106.66245 | 39 ft | 21 kts | 69° |
| 2026-05-07 13:13 | 10.81979 | 106.66381 | 39 ft | 21 kts | 69° |
| 2026-05-07 13:13 | 10.82030 | 106.66518 | 37 ft | 21 kts | 69° |
| 2026-05-07 13:14 | 10.82083 | 106.66655 | 39 ft | 21 kts | 69° |
| 2026-05-07 13:14 | 10.82134 | 106.66791 | 38 ft | 21 kts | 66° |
| 2026-05-07 13:14 | 10.82185 | 106.66926 | 38 ft | 20 kts | 69° |
| 2026-05-07 13:14 | 10.82267 | 106.67009 | 39 ft | 14 kts | 348° |
| 2026-05-07 13:15 | 10.82341 | 106.66959 | 38 ft | 13 kts | 333° |
| 2026-05-07 13:15 | 10.82354 | 106.66908 | 38 ft | 0 kts | 249° |
| 2026-05-07 13:15 | 10.82351 | 106.66898 | 38 ft | 4 kts | 250° |
| 2026-05-07 13:15 | 10.82280 | 106.66711 | 37 ft | 63 kts | 249° |
| 2026-05-07 13:16 | 10.82047 | 106.66093 | 40 ft | 124 kts | 249° |
| 2026-05-07 13:16 | 10.81674 | 106.65110 | 41 ft | 172 kts | 249° |
| 2026-05-07 13:16 | 10.81173 | 106.63910 | 402 ft | 182 kts | 242° |
| 2026-05-07 13:16 | 10.80707 | 106.62764 | 1176 ft | 173 kts | 245° |
| 2026-05-07 13:17 | 10.80272 | 106.61585 | 1481 ft | 187 kts | 246° |
| 2026-05-07 13:17 | 10.79795 | 106.60274 | 1625 ft | 209 kts | 245° |
| 2026-05-07 13:17 | 10.79263 | 106.58821 | 1766 ft | 229 kts | 247° |
| 2026-05-07 13:17 | 10.78678 | 106.57231 | 1871 ft | 252 kts | 246° |
| 2026-05-07 13:18 | 10.78032 | 106.55497 | 2141 ft | 270 kts | 247° |
| 2026-05-07 13:18 | 10.77360 | 106.53690 | 2677 ft | 275 kts | 248° |
| 2026-05-07 13:18 | 10.76746 | 106.51835 | 3258 ft | 280 kts | 259° |
| 2026-05-07 13:18 | 10.76777 | 106.49863 | 3858 ft | 282 kts | 285° |
| 2026-05-07 13:19 | 10.77593 | 106.48070 | 4510 ft | 280 kts | 309° |
| 2026-05-07 13:19 | 10.79015 | 106.46782 | 5103 ft | 279 kts | 333° |
| 2026-05-07 13:19 | 10.80840 | 106.46179 | 5699 ft | 277 kts | 357° |
| 2026-05-07 13:19 | 10.82760 | 106.46287 | 6302 ft | 277 kts | 9° |
| 2026-05-07 13:20 | 10.84615 | 106.46528 | 6852 ft | 280 kts | 9° |
| 2026-05-07 13:20 | 10.86555 | 106.46780 | 7425 ft | 282 kts | 9° |
| 2026-05-07 13:20 | 10.88505 | 106.47057 | 7986 ft | 284 kts | 14° |
| 2026-05-07 13:20 | 10.90358 | 106.47734 | 8532 ft | 284 kts | 30° |
| 2026-05-07 13:21 | 10.91964 | 106.48907 | 9081 ft | 285 kts | 45° |
| 2026-05-07 13:21 | 10.93240 | 106.50451 | 9634 ft | 287 kts | 53° |
| 2026-05-07 13:21 | 10.94461 | 106.52061 | 10123 ft | 289 kts | 53° |
| 2026-05-07 13:21 | 10.95716 | 106.53710 | 10361 ft | 303 kts | 53° |
| 2026-05-07 13:22 | 10.97025 | 106.55425 | 10481 ft | 319 kts | 53° |
| 2026-05-07 13:22 | 10.98422 | 106.57250 | 10603 ft | 334 kts | 53° |
| 2026-05-07 13:22 | 10.99880 | 106.59156 | 10757 ft | 347 kts | 53° |
| 2026-05-07 13:22 | 11.01377 | 106.61110 | 11123 ft | 352 kts | 53° |
| 2026-05-07 13:23 | 11.02890 | 106.63081 | 11551 ft | 355 kts | 53° |
| 2026-05-07 13:23 | 11.04417 | 106.65068 | 11988 ft | 357 kts | 53° |
| 2026-05-07 13:23 | 11.05956 | 106.67069 | 12422 ft | 360 kts | 53° |
| 2026-05-07 13:23 | 11.07504 | 106.69081 | 12845 ft | 363 kts | 53° |
| 2026-05-07 13:24 | 11.09067 | 106.71111 | 13269 ft | 365 kts | 53° |
| 2026-05-07 13:24 | 11.10637 | 106.73154 | 13687 ft | 368 kts | 53° |
| 2026-05-07 13:24 | 11.12218 | 106.75214 | 14041 ft | 370 kts | 53° |
| 2026-05-07 13:24 | 11.13785 | 106.77258 | 14400 ft | 372 kts | 53° |
| 2026-05-07 13:25 | 11.15383 | 106.79345 | 14751 ft | 375 kts | 53° |
| 2026-05-07 13:25 | 11.16987 | 106.81444 | 15107 ft | 377 kts | 53° |
| 2026-05-07 13:25 | 11.18600 | 106.83556 | 15457 ft | 379 kts | 53° |
| 2026-05-07 13:25 | 11.20226 | 106.85682 | 15805 ft | 381 kts | 53° |
| 2026-05-07 13:26 | 11.21858 | 106.87813 | 16164 ft | 383 kts | 53° |
| 2026-05-07 13:26 | 11.23502 | 106.89957 | 16516 ft | 385 kts | 53° |
| 2026-05-07 13:26 | 11.25155 | 106.92116 | 16869 ft | 387 kts | 53° |
| 2026-05-07 13:26 | 11.26815 | 106.94284 | 17216 ft | 389 kts | 53° |
| 2026-05-07 13:27 | 11.28482 | 106.96465 | 17558 ft | 391 kts | 53° |
| 2026-05-07 13:27 | 11.30157 | 106.98657 | 17903 ft | 393 kts | 53° |
| 2026-05-07 13:27 | 11.31844 | 107.00863 | 18214 ft | 395 kts | 53° |
| 2026-05-07 13:27 | 11.33539 | 107.03080 | 18495 ft | 397 kts | 53° |
| 2026-05-07 13:28 | 11.34669 | 107.04546 | 18675 ft | 399 kts | 52° |